sensor_id;sensor_type;location;lat;lon;timestamp;P1;durP1;ratioP1;P2;durP2;ratioP2
24337;SDS011;12457;50.832;4.346;2023-11-21T00:00:30;53.88;;;26.75;;
24337;SDS011;12457;50.832;4.346;2023-11-21T00:02:56;59.03;;;27.15;;
24337;SDS011;12457;50.832;4.346;2023-11-21T00:05:22;52.03;;;27.13;;
24337;SDS011;12457;50.832;4.346;2023-11-21T00:07:48;55.00;;;27.40;;
24337;SDS011;12457;50.832;4.346;2023-11-21T00:10:14;53.83;;;26.80;;
24337;SDS011;12457;50.832;4.346;2023-11-21T00:12:41;53.08;;;27.98;;
24337;SDS011;12457;50.832;4.346;2023-11-21T00:15:07;57.70;;;28.23;;
24337;SDS011;12457;50.832;4.346;2023-11-21T00:17:37;57.47;;;26.48;;
24337;SDS011;12457;50.832;4.346;2023-11-21T00:20:06;52.60;;;27.35;;
24337;SDS011;12457;50.832;4.346;2023-11-21T00:22:33;49.35;;;25.90;;
24337;SDS011;12457;50.832;4.346;2023-11-21T00:24:59;48.75;;;25.42;;
24337;SDS011;12457;50.832;4.346;2023-11-21T00:27:25;53.35;;;26.83;;
24337;SDS011;12457;50.832;4.346;2023-11-21T00:29:51;53.78;;;25.20;;
24337;SDS011;12457;50.832;4.346;2023-11-21T00:32:17;56.00;;;26.55;;
24337;SDS011;12457;50.832;4.346;2023-11-21T00:34:45;52.20;;;26.92;;
24337;SDS011;12457;50.832;4.346;2023-11-21T00:37:11;51.53;;;26.38;;
24337;SDS011;12457;50.832;4.346;2023-11-21T00:39:36;49.50;;;25.63;;
24337;SDS011;12457;50.832;4.346;2023-11-21T00:42:02;50.00;;;25.42;;
24337;SDS011;12457;50.832;4.346;2023-11-21T00:44:29;49.83;;;25.67;;
24337;SDS011;12457;50.832;4.346;2023-11-21T00:46:55;51.15;;;25.30;;
24337;SDS011;12457;50.832;4.346;2023-11-21T00:52:34;49.63;;;25.95;;
24337;SDS011;12457;50.832;4.346;2023-11-21T00:55:01;47.28;;;25.20;;
24337;SDS011;12457;50.832;4.346;2023-11-21T00:57:29;49.42;;;25.65;;
24337;SDS011;12457;50.832;4.346;2023-11-21T00:59:55;72.82;;;38.90;;
24337;SDS011;12457;50.832;4.346;2023-11-21T01:02:21;109.22;;;64.70;;
24337;SDS011;12457;50.832;4.346;2023-11-21T01:04:47;68.63;;;37.67;;
24337;SDS011;12457;50.832;4.346;2023-11-21T01:07:13;64.63;;;37.72;;
24337;SDS011;12457;50.832;4.346;2023-11-21T01:09:38;75.82;;;42.92;;
24337;SDS011;12457;50.832;4.346;2023-11-21T01:12:04;68.63;;;40.42;;
24337;SDS011;12457;50.832;4.346;2023-11-21T01:14:30;73.68;;;43.92;;
24337;SDS011;12457;50.832;4.346;2023-11-21T01:16:56;63.25;;;35.85;;
24337;SDS011;12457;50.832;4.346;2023-11-21T01:19:21;62.13;;;36.35;;
24337;SDS011;12457;50.832;4.346;2023-11-21T01:21:47;60.03;;;30.90;;
24337;SDS011;12457;50.832;4.346;2023-11-21T01:24:13;53.15;;;29.52;;
24337;SDS011;12457;50.832;4.346;2023-11-21T01:26:38;50.72;;;27.98;;
24337;SDS011;12457;50.832;4.346;2023-11-21T01:29:04;52.42;;;26.92;;
24337;SDS011;12457;50.832;4.346;2023-11-21T01:31:31;48.40;;;25.48;;
24337;SDS011;12457;50.832;4.346;2023-11-21T01:33:57;41.88;;;23.42;;
24337;SDS011;12457;50.832;4.346;2023-11-21T01:36:29;42.10;;;23.05;;
24337;SDS011;12457;50.832;4.346;2023-11-21T01:38:59;43.95;;;21.95;;
24337;SDS011;12457;50.832;4.346;2023-11-21T01:41:26;43.13;;;23.92;;
24337;SDS011;12457;50.832;4.346;2023-11-21T01:43:54;42.17;;;23.08;;
24337;SDS011;12457;50.832;4.346;2023-11-21T01:46:21;47.30;;;24.23;;
24337;SDS011;12457;50.832;4.346;2023-11-21T01:48:48;45.72;;;22.90;;
24337;SDS011;12457;50.832;4.346;2023-11-21T01:51:19;44.65;;;22.80;;
24337;SDS011;12457;50.832;4.346;2023-11-21T01:53:45;44.15;;;23.30;;
24337;SDS011;12457;50.832;4.346;2023-11-21T01:56:12;50.72;;;24.77;;
24337;SDS011;12457;50.832;4.346;2023-11-21T01:58:39;44.05;;;23.77;;
24337;SDS011;12457;50.832;4.346;2023-11-21T02:01:07;48.30;;;24.13;;
24337;SDS011;12457;50.832;4.346;2023-11-21T02:03:33;47.30;;;24.20;;
24337;SDS011;12457;50.832;4.346;2023-11-21T02:06:00;54.03;;;24.10;;
24337;SDS011;12457;50.832;4.346;2023-11-21T02:08:26;46.22;;;23.67;;
24337;SDS011;12457;50.832;4.346;2023-11-21T02:10:52;49.15;;;24.75;;
24337;SDS011;12457;50.832;4.346;2023-11-21T02:13:17;51.90;;;23.98;;
24337;SDS011;12457;50.832;4.346;2023-11-21T02:15:43;45.42;;;23.83;;
24337;SDS011;12457;50.832;4.346;2023-11-21T02:18:10;44.22;;;23.05;;
24337;SDS011;12457;50.832;4.346;2023-11-21T02:20:55;47.40;;;24.70;;
24337;SDS011;12457;50.832;4.346;2023-11-21T02:23:21;48.65;;;23.65;;
24337;SDS011;12457;50.832;4.346;2023-11-21T02:25:48;41.80;;;23.75;;
24337;SDS011;12457;50.832;4.346;2023-11-21T02:28:14;50.72;;;24.98;;
24337;SDS011;12457;50.832;4.346;2023-11-21T02:30:41;50.75;;;25.95;;
24337;SDS011;12457;50.832;4.346;2023-11-21T02:33:08;47.15;;;25.13;;
24337;SDS011;12457;50.832;4.346;2023-11-21T02:35:34;47.78;;;25.15;;
24337;SDS011;12457;50.832;4.346;2023-11-21T02:38:00;42.03;;;23.73;;
24337;SDS011;12457;50.832;4.346;2023-11-21T02:40:25;46.40;;;24.25;;
24337;SDS011;12457;50.832;4.346;2023-11-21T02:42:51;44.33;;;22.23;;
24337;SDS011;12457;50.832;4.346;2023-11-21T02:45:18;45.50;;;23.08;;
24337;SDS011;12457;50.832;4.346;2023-11-21T02:47:46;46.17;;;23.25;;
24337;SDS011;12457;50.832;4.346;2023-11-21T02:50:14;40.17;;;22.33;;
24337;SDS011;12457;50.832;4.346;2023-11-21T02:52:39;46.55;;;23.23;;
24337;SDS011;12457;50.832;4.346;2023-11-21T02:55:05;44.30;;;20.88;;
24337;SDS011;12457;50.832;4.346;2023-11-21T02:57:34;40.15;;;19.77;;
24337;SDS011;12457;50.832;4.346;2023-11-21T03:00:01;43.67;;;22.23;;
24337;SDS011;12457;50.832;4.346;2023-11-21T03:02:27;42.25;;;20.45;;
24337;SDS011;12457;50.832;4.346;2023-11-21T03:04:53;41.72;;;20.10;;
24337;SDS011;12457;50.832;4.346;2023-11-21T03:07:19;39.97;;;21.05;;
24337;SDS011;12457;50.832;4.346;2023-11-21T03:09:45;42.80;;;21.33;;
24337;SDS011;12457;50.832;4.346;2023-11-21T03:12:11;39.08;;;21.10;;
24337;SDS011;12457;50.832;4.346;2023-11-21T03:14:41;44.65;;;21.98;;
24337;SDS011;12457;50.832;4.346;2023-11-21T03:17:06;43.33;;;21.83;;
24337;SDS011;12457;50.832;4.346;2023-11-21T03:19:32;45.25;;;22.25;;
24337;SDS011;12457;50.832;4.346;2023-11-21T03:21:58;41.08;;;22.50;;
24337;SDS011;12457;50.832;4.346;2023-11-21T03:24:24;43.05;;;23.27;;
24337;SDS011;12457;50.832;4.346;2023-11-21T03:26:51;44.17;;;24.05;;
24337;SDS011;12457;50.832;4.346;2023-11-21T03:29:17;43.05;;;23.67;;
24337;SDS011;12457;50.832;4.346;2023-11-21T03:31:43;43.55;;;23.83;;
24337;SDS011;12457;50.832;4.346;2023-11-21T03:34:15;46.75;;;24.77;;
24337;SDS011;12457;50.832;4.346;2023-11-21T03:36:49;48.58;;;25.80;;
24337;SDS011;12457;50.832;4.346;2023-11-21T03:39:15;49.88;;;25.42;;
24337;SDS011;12457;50.832;4.346;2023-11-21T03:41:41;53.22;;;24.48;;
24337;SDS011;12457;50.832;4.346;2023-11-21T03:44:07;50.33;;;24.58;;
24337;SDS011;12457;50.832;4.346;2023-11-21T03:46:33;50.50;;;25.15;;
24337;SDS011;12457;50.832;4.346;2023-11-21T03:48:58;42.70;;;23.73;;
24337;SDS011;12457;50.832;4.346;2023-11-21T03:51:24;50.38;;;25.88;;
24337;SDS011;12457;50.832;4.346;2023-11-21T03:53:50;51.70;;;26.30;;
24337;SDS011;12457;50.832;4.346;2023-11-21T03:56:15;46.05;;;24.48;;
24337;SDS011;12457;50.832;4.346;2023-11-21T03:58:41;49.53;;;26.63;;
24337;SDS011;12457;50.832;4.346;2023-11-21T04:01:07;53.97;;;26.67;;
24337;SDS011;12457;50.832;4.346;2023-11-21T04:03:32;48.03;;;26.70;;
24337;SDS011;12457;50.832;4.346;2023-11-21T04:05:58;47.28;;;25.10;;
24337;SDS011;12457;50.832;4.346;2023-11-21T04:08:26;55.10;;;25.50;;
24337;SDS011;12457;50.832;4.346;2023-11-21T04:10:51;48.40;;;26.08;;
24337;SDS011;12457;50.832;4.346;2023-11-21T04:13:19;47.67;;;26.42;;
24337;SDS011;12457;50.832;4.346;2023-11-21T04:15:45;49.10;;;24.17;;
24337;SDS011;12457;50.832;4.346;2023-11-21T04:18:11;45.10;;;24.63;;
24337;SDS011;12457;50.832;4.346;2023-11-21T04:20:36;47.72;;;25.55;;
24337;SDS011;12457;50.832;4.346;2023-11-21T04:23:02;42.40;;;23.98;;
24337;SDS011;12457;50.832;4.346;2023-11-21T04:25:28;45.15;;;24.73;;
24337;SDS011;12457;50.832;4.346;2023-11-21T04:27:54;51.00;;;26.50;;
24337;SDS011;12457;50.832;4.346;2023-11-21T04:30:19;43.75;;;24.05;;
24337;SDS011;12457;50.832;4.346;2023-11-21T04:32:47;46.00;;;24.42;;
24337;SDS011;12457;50.832;4.346;2023-11-21T04:35:12;40.83;;;24.95;;
24337;SDS011;12457;50.832;4.346;2023-11-21T04:37:40;39.55;;;23.95;;
24337;SDS011;12457;50.832;4.346;2023-11-21T04:40:05;44.13;;;24.63;;
24337;SDS011;12457;50.832;4.346;2023-11-21T04:42:34;49.70;;;24.63;;
24337;SDS011;12457;50.832;4.346;2023-11-21T04:45:04;41.95;;;23.92;;
24337;SDS011;12457;50.832;4.346;2023-11-21T04:47:34;41.83;;;23.45;;
24337;SDS011;12457;50.832;4.346;2023-11-21T04:50:00;42.88;;;23.63;;
24337;SDS011;12457;50.832;4.346;2023-11-21T04:52:28;43.38;;;24.60;;
24337;SDS011;12457;50.832;4.346;2023-11-21T04:54:54;41.42;;;25.23;;
24337;SDS011;12457;50.832;4.346;2023-11-21T04:57:21;45.67;;;24.27;;
24337;SDS011;12457;50.832;4.346;2023-11-21T04:59:47;50.22;;;24.15;;
24337;SDS011;12457;50.832;4.346;2023-11-21T05:02:14;41.75;;;25.23;;
24337;SDS011;12457;50.832;4.346;2023-11-21T05:04:40;41.47;;;23.70;;
24337;SDS011;12457;50.832;4.346;2023-11-21T05:10:14;48.97;;;25.02;;
24337;SDS011;12457;50.832;4.346;2023-11-21T05:12:40;43.83;;;23.13;;
24337;SDS011;12457;50.832;4.346;2023-11-21T05:15:07;47.10;;;24.05;;
24337;SDS011;12457;50.832;4.346;2023-11-21T05:17:35;42.80;;;22.80;;
24337;SDS011;12457;50.832;4.346;2023-11-21T05:20:01;47.95;;;23.85;;
24337;SDS011;12457;50.832;4.346;2023-11-21T05:22:34;50.63;;;24.73;;
24337;SDS011;12457;50.832;4.346;2023-11-21T05:25:01;50.17;;;24.73;;
24337;SDS011;12457;50.832;4.346;2023-11-21T05:27:28;44.50;;;23.92;;
24337;SDS011;12457;50.832;4.346;2023-11-21T05:29:56;46.05;;;24.75;;
24337;SDS011;12457;50.832;4.346;2023-11-21T05:32:24;49.97;;;23.83;;
24337;SDS011;12457;50.832;4.346;2023-11-21T05:34:50;43.10;;;23.08;;
24337;SDS011;12457;50.832;4.346;2023-11-21T05:37:16;44.10;;;24.50;;
24337;SDS011;12457;50.832;4.346;2023-11-21T05:39:42;48.75;;;24.23;;
24337;SDS011;12457;50.832;4.346;2023-11-21T05:42:08;48.97;;;24.58;;
24337;SDS011;12457;50.832;4.346;2023-11-21T05:44:35;46.33;;;25.02;;
24337;SDS011;12457;50.832;4.346;2023-11-21T05:47:06;51.53;;;26.23;;
24337;SDS011;12457;50.832;4.346;2023-11-21T05:49:32;50.55;;;24.98;;
24337;SDS011;12457;50.832;4.346;2023-11-21T05:51:58;46.78;;;24.25;;
24337;SDS011;12457;50.832;4.346;2023-11-21T05:54:25;44.80;;;22.90;;
24337;SDS011;12457;50.832;4.346;2023-11-21T05:56:52;47.85;;;22.85;;
24337;SDS011;12457;50.832;4.346;2023-11-21T05:59:18;40.63;;;23.80;;
24337;SDS011;12457;50.832;4.346;2023-11-21T06:01:45;40.33;;;23.10;;
24337;SDS011;12457;50.832;4.346;2023-11-21T06:04:11;50.92;;;23.75;;
24337;SDS011;12457;50.832;4.346;2023-11-21T06:06:38;43.25;;;22.73;;
24337;SDS011;12457;50.832;4.346;2023-11-21T06:09:04;40.00;;;22.65;;
24337;SDS011;12457;50.832;4.346;2023-11-21T06:11:31;36.70;;;21.38;;
24337;SDS011;12457;50.832;4.346;2023-11-21T06:13:57;43.38;;;23.33;;
24337;SDS011;12457;50.832;4.346;2023-11-21T06:16:25;41.88;;;22.50;;
24337;SDS011;12457;50.832;4.346;2023-11-21T06:18:52;50.15;;;24.35;;
24337;SDS011;12457;50.832;4.346;2023-11-21T06:21:18;40.10;;;24.05;;
24337;SDS011;12457;50.832;4.346;2023-11-21T06:23:44;49.70;;;24.23;;
24337;SDS011;12457;50.832;4.346;2023-11-21T06:26:11;46.88;;;24.35;;
24337;SDS011;12457;50.832;4.346;2023-11-21T06:28:39;46.88;;;24.38;;
24337;SDS011;12457;50.832;4.346;2023-11-21T06:31:06;49.95;;;26.15;;
24337;SDS011;12457;50.832;4.346;2023-11-21T06:33:32;58.20;;;28.38;;
24337;SDS011;12457;50.832;4.346;2023-11-21T06:35:57;58.22;;;27.80;;
24337;SDS011;12457;50.832;4.346;2023-11-21T06:38:23;53.15;;;27.05;;
24337;SDS011;12457;50.832;4.346;2023-11-21T06:40:49;62.17;;;26.48;;
24337;SDS011;12457;50.832;4.346;2023-11-21T06:43:16;58.38;;;26.95;;
24337;SDS011;12457;50.832;4.346;2023-11-21T06:45:42;49.72;;;26.58;;
24337;SDS011;12457;50.832;4.346;2023-11-21T06:48:09;56.47;;;25.83;;
24337;SDS011;12457;50.832;4.346;2023-11-21T06:50:36;51.90;;;25.17;;
24337;SDS011;12457;50.832;4.346;2023-11-21T06:53:01;44.67;;;23.00;;
24337;SDS011;12457;50.832;4.346;2023-11-21T06:55:29;45.55;;;25.42;;
24337;SDS011;12457;50.832;4.346;2023-11-21T06:57:56;47.78;;;26.35;;
24337;SDS011;12457;50.832;4.346;2023-11-21T07:00:23;46.75;;;27.60;;
24337;SDS011;12457;50.832;4.346;2023-11-21T07:02:48;45.60;;;26.80;;
24337;SDS011;12457;50.832;4.346;2023-11-21T07:05:14;47.22;;;25.98;;
24337;SDS011;12457;50.832;4.346;2023-11-21T07:07:40;43.25;;;25.10;;
24337;SDS011;12457;50.832;4.346;2023-11-21T07:10:08;53.28;;;23.92;;
24337;SDS011;12457;50.832;4.346;2023-11-21T07:12:35;41.92;;;24.08;;
24337;SDS011;12457;50.832;4.346;2023-11-21T07:15:02;45.50;;;24.13;;
24337;SDS011;12457;50.832;4.346;2023-11-21T07:17:32;45.78;;;24.58;;
24337;SDS011;12457;50.832;4.346;2023-11-21T07:19:57;54.65;;;25.58;;
24337;SDS011;12457;50.832;4.346;2023-11-21T07:22:23;47.72;;;23.88;;
24337;SDS011;12457;50.832;4.346;2023-11-21T07:24:50;47.20;;;24.33;;
24337;SDS011;12457;50.832;4.346;2023-11-21T07:27:18;45.13;;;25.85;;
24337;SDS011;12457;50.832;4.346;2023-11-21T07:29:44;49.40;;;24.83;;
24337;SDS011;12457;50.832;4.346;2023-11-21T07:32:12;84.95;;;35.42;;
24337;SDS011;12457;50.832;4.346;2023-11-21T07:34:40;47.90;;;26.27;;
24337;SDS011;12457;50.832;4.346;2023-11-21T07:37:10;54.05;;;27.00;;
24337;SDS011;12457;50.832;4.346;2023-11-21T07:39:35;54.13;;;26.02;;
24337;SDS011;12457;50.832;4.346;2023-11-21T07:42:02;53.60;;;26.52;;
24337;SDS011;12457;50.832;4.346;2023-11-21T07:44:30;56.45;;;26.88;;
24337;SDS011;12457;50.832;4.346;2023-11-21T07:46:57;50.70;;;26.98;;
24337;SDS011;12457;50.832;4.346;2023-11-21T07:49:24;51.00;;;26.67;;
24337;SDS011;12457;50.832;4.346;2023-11-21T07:51:52;56.00;;;28.15;;
24337;SDS011;12457;50.832;4.346;2023-11-21T07:54:18;60.08;;;27.08;;
24337;SDS011;12457;50.832;4.346;2023-11-21T07:56:44;62.28;;;27.05;;
24337;SDS011;12457;50.832;4.346;2023-11-21T07:59:11;61.55;;;28.20;;
24337;SDS011;12457;50.832;4.346;2023-11-21T08:01:37;65.63;;;28.35;;
24337;SDS011;12457;50.832;4.346;2023-11-21T08:04:05;52.70;;;28.15;;
24337;SDS011;12457;50.832;4.346;2023-11-21T08:06:31;57.03;;;28.13;;
24337;SDS011;12457;50.832;4.346;2023-11-21T08:09:08;58.58;;;28.52;;
24337;SDS011;12457;50.832;4.346;2023-11-21T08:11:34;59.95;;;28.67;;
24337;SDS011;12457;50.832;4.346;2023-11-21T08:13:59;56.53;;;26.83;;
24337;SDS011;12457;50.832;4.346;2023-11-21T08:16:31;61.63;;;28.38;;
24337;SDS011;12457;50.832;4.346;2023-11-21T08:19:09;53.78;;;26.55;;
24337;SDS011;12457;50.832;4.346;2023-11-21T08:21:36;61.30;;;27.30;;
24337;SDS011;12457;50.832;4.346;2023-11-21T08:24:05;61.65;;;27.70;;
24337;SDS011;12457;50.832;4.346;2023-11-21T08:26:35;58.05;;;27.38;;
24337;SDS011;12457;50.832;4.346;2023-11-21T08:29:04;59.60;;;27.27;;
24337;SDS011;12457;50.832;4.346;2023-11-21T08:31:36;53.13;;;28.48;;
24337;SDS011;12457;50.832;4.346;2023-11-21T08:34:03;64.47;;;29.00;;
24337;SDS011;12457;50.832;4.346;2023-11-21T08:36:30;57.33;;;27.98;;
24337;SDS011;12457;50.832;4.346;2023-11-21T08:38:56;55.33;;;27.25;;
24337;SDS011;12457;50.832;4.346;2023-11-21T08:41:24;64.53;;;28.65;;
24337;SDS011;12457;50.832;4.346;2023-11-21T08:43:53;72.82;;;29.42;;
24337;SDS011;12457;50.832;4.346;2023-11-21T08:46:20;65.50;;;32.38;;
24337;SDS011;12457;50.832;4.346;2023-11-21T08:48:46;59.78;;;27.58;;
24337;SDS011;12457;50.832;4.346;2023-11-21T08:51:13;61.22;;;28.92;;
24337;SDS011;12457;50.832;4.346;2023-11-21T08:53:39;63.55;;;27.83;;
24337;SDS011;12457;50.832;4.346;2023-11-21T08:56:05;59.00;;;29.33;;
24337;SDS011;12457;50.832;4.346;2023-11-21T08:58:31;72.70;;;30.48;;
24337;SDS011;12457;50.832;4.346;2023-11-21T09:00:57;71.47;;;33.55;;
24337;SDS011;12457;50.832;4.346;2023-11-21T09:03:23;82.22;;;39.85;;
24337;SDS011;12457;50.832;4.346;2023-11-21T09:05:49;61.30;;;29.42;;
24337;SDS011;12457;50.832;4.346;2023-11-21T09:08:15;72.32;;;31.98;;
24337;SDS011;12457;50.832;4.346;2023-11-21T09:10:41;69.32;;;30.92;;
24337;SDS011;12457;50.832;4.346;2023-11-21T09:13:09;74.57;;;30.15;;
24337;SDS011;12457;50.832;4.346;2023-11-21T09:15:35;68.20;;;30.75;;
24337;SDS011;12457;50.832;4.346;2023-11-21T09:18:00;74.45;;;31.48;;
24337;SDS011;12457;50.832;4.346;2023-11-21T09:20:29;65.63;;;28.35;;
24337;SDS011;12457;50.832;4.346;2023-11-21T09:22:55;85.38;;;33.95;;
24337;SDS011;12457;50.832;4.346;2023-11-21T09:25:26;74.30;;;31.92;;
24337;SDS011;12457;50.832;4.346;2023-11-21T09:27:55;85.00;;;31.37;;
24337;SDS011;12457;50.832;4.346;2023-11-21T09:30:22;61.30;;;27.55;;
24337;SDS011;12457;50.832;4.346;2023-11-21T09:32:49;69.47;;;29.13;;
24337;SDS011;12457;50.832;4.346;2023-11-21T09:35:15;68.55;;;28.17;;
24337;SDS011;12457;50.832;4.346;2023-11-21T09:37:43;74.47;;;29.13;;
24337;SDS011;12457;50.832;4.346;2023-11-21T09:43:18;74.80;;;33.08;;
24337;SDS011;12457;50.832;4.346;2023-11-21T09:45:48;56.70;;;26.52;;
24337;SDS011;12457;50.832;4.346;2023-11-21T09:48:35;59.47;;;26.58;;
24337;SDS011;12457;50.832;4.346;2023-11-21T09:51:03;62.50;;;27.55;;
24337;SDS011;12457;50.832;4.346;2023-11-21T09:53:34;64.30;;;28.42;;
24337;SDS011;12457;50.832;4.346;2023-11-21T09:56:01;70.45;;;29.15;;
24337;SDS011;12457;50.832;4.346;2023-11-21T09:58:27;70.05;;;29.17;;
24337;SDS011;12457;50.832;4.346;2023-11-21T10:00:54;70.80;;;30.90;;
24337;SDS011;12457;50.832;4.346;2023-11-21T10:03:22;72.47;;;30.58;;
24337;SDS011;12457;50.832;4.346;2023-11-21T10:05:48;72.88;;;31.23;;
24337;SDS011;12457;50.832;4.346;2023-11-21T10:08:18;89.72;;;33.15;;
24337;SDS011;12457;50.832;4.346;2023-11-21T10:10:51;70.43;;;30.63;;
24337;SDS011;12457;50.832;4.346;2023-11-21T10:13:19;64.20;;;30.45;;
24337;SDS011;12457;50.832;4.346;2023-11-21T10:15:49;67.03;;;30.23;;
24337;SDS011;12457;50.832;4.346;2023-11-21T10:18:16;45.53;;;24.35;;
24337;SDS011;12457;50.832;4.346;2023-11-21T10:20:42;41.47;;;22.35;;
24337;SDS011;12457;50.832;4.346;2023-11-21T10:23:11;39.83;;;20.95;;
24337;SDS011;12457;50.832;4.346;2023-11-21T10:25:50;37.58;;;20.75;;
24337;SDS011;12457;50.832;4.346;2023-11-21T10:28:20;34.33;;;20.48;;
24337;SDS011;12457;50.832;4.346;2023-11-21T10:30:46;32.58;;;19.90;;
24337;SDS011;12457;50.832;4.346;2023-11-21T10:33:12;36.83;;;20.98;;
24337;SDS011;12457;50.832;4.346;2023-11-21T10:38:17;41.72;;;22.50;;
24337;SDS011;12457;50.832;4.346;2023-11-21T10:40:54;36.08;;;21.23;;
24337;SDS011;12457;50.832;4.346;2023-11-21T10:43:20;38.13;;;21.30;;
24337;SDS011;12457;50.832;4.346;2023-11-21T10:45:50;36.00;;;20.98;;
24337;SDS011;12457;50.832;4.346;2023-11-21T10:48:16;36.30;;;19.30;;
24337;SDS011;12457;50.832;4.346;2023-11-21T10:50:42;33.63;;;20.40;;
24337;SDS011;12457;50.832;4.346;2023-11-21T10:53:09;34.13;;;20.33;;
24337;SDS011;12457;50.832;4.346;2023-11-21T10:55:36;36.38;;;20.55;;
24337;SDS011;12457;50.832;4.346;2023-11-21T10:58:03;40.25;;;21.10;;
24337;SDS011;12457;50.832;4.346;2023-11-21T11:00:30;36.97;;;20.83;;
24337;SDS011;12457;50.832;4.346;2023-11-21T11:02:57;37.38;;;22.77;;
24337;SDS011;12457;50.832;4.346;2023-11-21T11:05:24;38.80;;;22.02;;
24337;SDS011;12457;50.832;4.346;2023-11-21T11:08:01;38.72;;;22.67;;
24337;SDS011;12457;50.832;4.346;2023-11-21T11:10:45;36.75;;;22.38;;
24337;SDS011;12457;50.832;4.346;2023-11-21T11:13:14;44.03;;;24.13;;
24337;SDS011;12457;50.832;4.346;2023-11-21T11:16:00;40.42;;;23.70;;
24337;SDS011;12457;50.832;4.346;2023-11-21T11:18:29;45.03;;;24.73;;
24337;SDS011;12457;50.832;4.346;2023-11-21T11:21:00;46.03;;;27.52;;
24337;SDS011;12457;50.832;4.346;2023-11-21T11:23:49;50.53;;;27.88;;
24337;SDS011;12457;50.832;4.346;2023-11-21T11:26:45;44.65;;;27.30;;
24337;SDS011;12457;50.832;4.346;2023-11-21T11:29:30;49.58;;;28.25;;
24337;SDS011;12457;50.832;4.346;2023-11-21T11:35:17;48.38;;;28.77;;
24337;SDS011;12457;50.832;4.346;2023-11-21T11:38:03;45.53;;;27.10;;
24337;SDS011;12457;50.832;4.346;2023-11-21T11:40:41;47.88;;;28.92;;
24337;SDS011;12457;50.832;4.346;2023-11-21T11:43:11;41.55;;;27.17;;
24337;SDS011;12457;50.832;4.346;2023-11-21T11:45:37;43.88;;;25.08;;
24337;SDS011;12457;50.832;4.346;2023-11-21T11:48:07;34.85;;;24.38;;
24337;SDS011;12457;50.832;4.346;2023-11-21T11:51:02;35.75;;;24.58;;
24337;SDS011;12457;50.832;4.346;2023-11-21T11:53:38;40.10;;;24.27;;
24337;SDS011;12457;50.832;4.346;2023-11-21T11:58:55;31.55;;;20.92;;
24337;SDS011;12457;50.832;4.346;2023-11-21T12:01:26;34.67;;;22.13;;
24337;SDS011;12457;50.832;4.346;2023-11-21T12:06:40;32.72;;;20.10;;
24337;SDS011;12457;50.832;4.346;2023-11-21T12:09:07;32.03;;;18.65;;
24337;SDS011;12457;50.832;4.346;2023-11-21T12:14:39;28.90;;;17.20;;
24337;SDS011;12457;50.832;4.346;2023-11-21T12:17:04;29.40;;;16.85;;
24337;SDS011;12457;50.832;4.346;2023-11-21T12:19:30;22.67;;;15.75;;
24337;SDS011;12457;50.832;4.346;2023-11-21T12:21:56;24.30;;;16.60;;
24337;SDS011;12457;50.832;4.346;2023-11-21T12:24:22;29.45;;;17.80;;
24337;SDS011;12457;50.832;4.346;2023-11-21T12:26:50;29.33;;;17.98;;
24337;SDS011;12457;50.832;4.346;2023-11-21T12:29:17;26.17;;;17.25;;
24337;SDS011;12457;50.832;4.346;2023-11-21T12:31:43;23.13;;;16.92;;
24337;SDS011;12457;50.832;4.346;2023-11-21T12:34:11;24.77;;;17.50;;
24337;SDS011;12457;50.832;4.346;2023-11-21T12:36:36;23.77;;;15.98;;
24337;SDS011;12457;50.832;4.346;2023-11-21T12:39:02;26.23;;;15.98;;
24337;SDS011;12457;50.832;4.346;2023-11-21T12:41:28;25.35;;;15.43;;
24337;SDS011;12457;50.832;4.346;2023-11-21T12:43:55;30.13;;;16.70;;
24337;SDS011;12457;50.832;4.346;2023-11-21T12:46:21;24.55;;;14.32;;
24337;SDS011;12457;50.832;4.346;2023-11-21T12:48:46;27.17;;;13.18;;
24337;SDS011;12457;50.832;4.346;2023-11-21T12:51:12;24.23;;;12.38;;
24337;SDS011;12457;50.832;4.346;2023-11-21T12:53:41;21.40;;;11.48;;
24337;SDS011;12457;50.832;4.346;2023-11-21T12:56:09;25.45;;;11.77;;
24337;SDS011;12457;50.832;4.346;2023-11-21T12:58:37;22.80;;;12.98;;
24337;SDS011;12457;50.832;4.346;2023-11-21T13:01:05;15.57;;;9.98;;
24337;SDS011;12457;50.832;4.346;2023-11-21T13:03:37;20.25;;;10.93;;
24337;SDS011;12457;50.832;4.346;2023-11-21T13:06:04;20.58;;;11.48;;
24337;SDS011;12457;50.832;4.346;2023-11-21T13:08:30;19.55;;;12.55;;
24337;SDS011;12457;50.832;4.346;2023-11-21T13:11:01;21.08;;;12.38;;
24337;SDS011;12457;50.832;4.346;2023-11-21T13:13:29;18.38;;;12.43;;
24337;SDS011;12457;50.832;4.346;2023-11-21T13:15:57;19.75;;;12.07;;
24337;SDS011;12457;50.832;4.346;2023-11-21T13:18:30;20.87;;;13.90;;
24337;SDS011;12457;50.832;4.346;2023-11-21T13:20:57;20.92;;;13.82;;
24337;SDS011;12457;50.832;4.346;2023-11-21T13:23:24;27.10;;;14.70;;
24337;SDS011;12457;50.832;4.346;2023-11-21T13:25:54;25.40;;;16.35;;
24337;SDS011;12457;50.832;4.346;2023-11-21T13:28:20;19.52;;;13.60;;
24337;SDS011;12457;50.832;4.346;2023-11-21T13:30:48;21.58;;;13.90;;
24337;SDS011;12457;50.832;4.346;2023-11-21T13:33:17;25.90;;;14.35;;
24337;SDS011;12457;50.832;4.346;2023-11-21T13:35:46;23.02;;;13.57;;
24337;SDS011;12457;50.832;4.346;2023-11-21T13:38:15;21.25;;;14.80;;
24337;SDS011;12457;50.832;4.346;2023-11-21T13:40:48;26.02;;;14.48;;
24337;SDS011;12457;50.832;4.346;2023-11-21T13:43:22;22.98;;;15.27;;
24337;SDS011;12457;50.832;4.346;2023-11-21T13:46:03;24.60;;;14.65;;
24337;SDS011;12457;50.832;4.346;2023-11-21T13:48:40;26.20;;;15.85;;
24337;SDS011;12457;50.832;4.346;2023-11-21T13:51:12;22.35;;;16.13;;
24337;SDS011;12457;50.832;4.346;2023-11-21T13:53:45;22.00;;;16.48;;
24337;SDS011;12457;50.832;4.346;2023-11-21T13:56:18;21.98;;;13.68;;
24337;SDS011;12457;50.832;4.346;2023-11-21T13:58:49;20.98;;;13.98;;
24337;SDS011;12457;50.832;4.346;2023-11-21T14:01:23;19.08;;;12.43;;
24337;SDS011;12457;50.832;4.346;2023-11-21T14:03:56;12.07;;;10.05;;
24337;SDS011;12457;50.832;4.346;2023-11-21T14:06:27;16.08;;;10.30;;
24337;SDS011;12457;50.832;4.346;2023-11-21T14:09:00;19.00;;;12.38;;
24337;SDS011;12457;50.832;4.346;2023-11-21T14:11:31;19.45;;;12.60;;
24337;SDS011;12457;50.832;4.346;2023-11-21T14:13:57;13.52;;;12.07;;
24337;SDS011;12457;50.832;4.346;2023-11-21T14:16:24;16.30;;;12.45;;
24337;SDS011;12457;50.832;4.346;2023-11-21T14:18:50;16.38;;;11.68;;
24337;SDS011;12457;50.832;4.346;2023-11-21T14:21:26;14.10;;;9.32;;
24337;SDS011;12457;50.832;4.346;2023-11-21T14:23:52;9.57;;;7.80;;
24337;SDS011;12457;50.832;4.346;2023-11-21T14:29:41;12.57;;;7.68;;
24337;SDS011;12457;50.832;4.346;2023-11-21T14:32:09;12.88;;;8.23;;
24337;SDS011;12457;50.832;4.346;2023-11-21T14:34:39;13.50;;;9.35;;
24337;SDS011;12457;50.832;4.346;2023-11-21T14:37:11;11.90;;;8.00;;
24337;SDS011;12457;50.832;4.346;2023-11-21T14:39:39;18.48;;;8.75;;
24337;SDS011;12457;50.832;4.346;2023-11-21T14:42:10;15.85;;;8.60;;
24337;SDS011;12457;50.832;4.346;2023-11-21T14:44:39;12.98;;;8.57;;
24337;SDS011;12457;50.832;4.346;2023-11-21T14:47:07;14.02;;;8.70;;
24337;SDS011;12457;50.832;4.346;2023-11-21T14:49:43;12.77;;;8.13;;
24337;SDS011;12457;50.832;4.346;2023-11-21T14:52:24;14.73;;;8.20;;